TimeCST,TemperatureF,Dew PointF,Humidity,Sea Level PressureIn,VisibilityMPH,Wind Direction,Wind SpeedMPH,Gust SpeedMPH,PrecipitationIn,Events,Conditions,WindDirDegrees,DateUTC
12:53 AM,50.0,48.0,93,30.31,10.0,South,9.2,-,N/A,,Overcast,190,2013-01-09 06:53:00
1:34 AM,50.0,48.2,94,30.33,10.0,South,6.9,-,N/A,,Overcast,190,2013-01-09 07:34:00
1:53 AM,50.0,48.0,93,30.32,10.0,Calm,Calm,-,N/A,,Overcast,0,2013-01-09 07:53:00
2:36 AM,50.0,48.2,94,30.32,9.0,South,5.8,-,N/A,,Overcast,180,2013-01-09 08:36:00
2:53 AM,50.0,48.0,93,30.32,10.0,South,6.9,-,N/A,,Overcast,190,2013-01-09 08:53:00
3:43 AM,51.8,48.2,88,30.33,10.0,South,4.6,-,N/A,,Overcast,180,2013-01-09 09:43:00
3:53 AM,51.1,48.9,92,30.32,10.0,South,5.8,-,N/A,,Overcast,170,2013-01-09 09:53:00
4:53 AM,52.0,50.0,93,30.32,10.0,South,9.2,17.3,N/A,,Overcast,180,2013-01-09 10:53:00
5:23 AM,51.8,50.0,94,30.33,7.0,South,8.1,-,N/A,,Overcast,180,2013-01-09 11:23:00
5:53 AM,52.0,51.1,97,30.33,5.0,Variable,5.8,-,0.01,Rain,Light Rain,0,2013-01-09 11:53:00
6:53 AM,52.0,51.1,97,30.36,5.0,South,3.5,-,0.01,Rain,Light Rain,180,2013-01-09 12:53:00
7:37 AM,51.8,51.8,100,30.38,4.0,South,5.8,-,0.04,Rain,Light Rain,190,2013-01-09 13:37:00
7:53 AM,52.0,51.1,97,30.38,5.0,South,5.8,-,0.05,Rain,Light Rain,190,2013-01-09 13:53:00
8:53 AM,53.1,52.0,96,30.40,6.0,Variable,3.5,-,0.03,Rain,Light Rain,0,2013-01-09 14:53:00
9:53 AM,54.0,53.1,97,30.42,6.0,South,4.6,-,0.04,Rain,Light Rain,190,2013-01-09 15:53:00
10:53 AM,55.0,53.1,93,30.41,10.0,Calm,Calm,-,0.00,,Overcast,0,2013-01-09 16:53:00
12:53 PM,55.9,54.0,93,30.38,9.0,Variable,3.5,-,0.01,,Overcast,0,2013-01-09 18:53:00
1:20 PM,55.4,53.6,94,30.39,2.5,Calm,Calm,-,0.01,Rain,Light Rain,0,2013-01-09 19:20:00
1:41 PM,55.4,55.4,100,30.39,6.0,Calm,Calm,-,0.02,Rain,Light Rain,0,2013-01-09 19:41:00
1:53 PM,55.9,55.0,97,30.38,8.0,Calm,Calm,-,0.03,,Overcast,0,2013-01-09 19:53:00
2:53 PM,55.9,55.0,97,30.38,5.0,Calm,Calm,-,N/A,,Overcast,0,2013-01-09 20:53:00
3:32 PM,55.4,55.4,100,30.37,8.0,SSE,4.6,-,N/A,,Overcast,160,2013-01-09 21:32:00
3:51 PM,55.4,55.4,100,30.37,10.0,Calm,Calm,-,N/A,,Mostly Cloudy,0,2013-01-09 21:51:00
3:53 PM,55.9,55.0,97,30.36,10.0,Calm,Calm,-,N/A,,Mostly Cloudy,0,2013-01-09 21:53:00
4:48 PM,55.4,53.6,94,30.39,5.0,Calm,Calm,-,N/A,,Mostly Cloudy,0,2013-01-09 22:48:00
4:53 PM,55.0,54.0,96,30.38,7.0,Calm,Calm,-,N/A,,Overcast,0,2013-01-09 22:53:00
5:25 PM,55.4,53.6,94,30.40,3.0,NE,4.6,-,N/A,,Overcast,50,2013-01-09 23:25:00
5:30 PM,55.4,53.6,94,30.40,2.5,NE,4.6,-,N/A,,Overcast,50,2013-01-09 23:30:00
5:37 PM,53.6,53.6,100,30.40,3.0,ENE,5.8,-,N/A,,Overcast,60,2013-01-09 23:37:00
5:53 PM,54.0,53.1,97,30.40,6.0,NE,3.5,-,N/A,,Overcast,50,2013-01-09 23:53:00
6:08 PM,53.6,53.6,100,30.41,6.0,ENE,3.5,-,N/A,,Overcast,60,2013-01-10 00:08:00
6:33 PM,53.6,53.6,100,30.42,3.0,NE,3.5,-,N/A,,Overcast,50,2013-01-10 00:33:00
6:36 PM,53.6,53.6,100,30.42,1.8,NE,3.5,-,N/A,,Overcast,50,2013-01-10 00:36:00
6:46 PM,53.6,53.6,100,30.42,0.5,NE,5.8,-,N/A,Fog,Fog,50,2013-01-10 00:46:00
6:53 PM,54.0,53.1,97,30.42,0.5,NE,5.8,-,N/A,Fog,Fog,50,2013-01-10 00:53:00
7:03 PM,53.6,53.6,100,30.43,0.8,NE,5.8,-,N/A,,Mist,50,2013-01-10 01:03:00
7:11 PM,53.6,53.6,100,30.43,0.5,ENE,5.8,-,N/A,Fog,Fog,60,2013-01-10 01:11:00
7:50 PM,53.6,53.6,100,30.44,0.2,NE,5.8,-,N/A,Fog,Fog,50,2013-01-10 01:50:00
7:53 PM,53.1,53.1,100,30.43,0.2,NE,5.8,-,N/A,Fog,Fog,50,2013-01-10 01:53:00
8:03 PM,53.6,53.6,100,30.45,0.5,NE,5.8,-,N/A,Fog,Fog,40,2013-01-10 02:03:00
8:18 PM,53.6,51.8,94,30.45,1.0,NE,5.8,-,N/A,,Mist,50,2013-01-10 02:18:00
8:32 PM,51.8,51.8,100,30.45,0.8,East,3.5,-,N/A,,Mist,80,2013-01-10 02:32:00
8:39 PM,51.8,51.8,100,30.45,0.5,East,3.5,-,N/A,Fog,Fog,80,2013-01-10 02:39:00
8:53 PM,52.0,52.0,100,30.44,0.5,Calm,Calm,-,N/A,Fog,Fog,0,2013-01-10 02:53:00
9:08 PM,53.6,51.8,94,30.45,0.2,East,3.5,-,N/A,Fog,Fog,90,2013-01-10 03:08:00
9:17 PM,53.6,51.8,94,30.45,0.5,ENE,3.5,-,N/A,Fog,Fog,70,2013-01-10 03:17:00
9:24 PM,51.8,51.8,100,30.45,1.0,ENE,4.6,-,N/A,,Mist,70,2013-01-10 03:24:00
9:33 PM,51.8,51.8,100,30.44,3.0,East,3.5,-,N/A,,Overcast,80,2013-01-10 03:33:00
9:53 PM,52.0,52.0,100,30.43,5.0,ENE,4.6,-,N/A,,Overcast,60,2013-01-10 03:53:00
10:37 PM,51.8,51.8,100,30.44,1.8,ENE,4.6,-,N/A,,Overcast,70,2013-01-10 04:37:00
10:45 PM,51.8,51.8,100,30.44,0.5,ENE,5.8,-,N/A,Fog,Fog,70,2013-01-10 04:45:00
10:53 PM,52.0,52.0,100,30.43,0.5,East,5.8,-,N/A,Fog,Fog,90,2013-01-10 04:53:00
10:58 PM,51.8,51.8,100,30.44,1.0,East,4.6,-,N/A,,Mist,80,2013-01-10 04:58:00
11:17 PM,51.8,51.8,100,30.44,0.8,East,3.5,-,N/A,,Mist,100,2013-01-10 05:17:00
11:24 PM,50.0,50.0,100,30.43,0.2,ENE,5.8,-,N/A,Fog,Fog,70,2013-01-10 05:24:00
11:38 PM,50.0,50.0,100,30.43,0.2,East,4.6,-,N/A,Fog,Fog,80,2013-01-10 05:38:00
11:53 PM,50.0,50.0,100,30.43,0.2,ESE,3.5,-,N/A,Fog,Fog,120,2013-01-10 05:53:00